West Hollywood, California
Current Conditions -  °F | °C
As of 11:51 PM on Thursday 18 Dec 2014 (Local Time) from KSMO Reporting Station
Clear Clear  
Wind Chill: 52°   Ceiling: Unl
Heat Index: 52°   Visibility: 10mi
Dew Point: 46°   Wind: 0mph
Humidity: 80%   Direction: NA
Pressure: 30.21"   Gusts: NA
Location:  34.09°N, 118.37°W
Report Text: KSMO 190751Z AUTO 00000KT 10SM CLR 11/08 A3021 RMK AO2 SLP230 T01110078 401670094
Loading
Personal Weather Stations






























Interactive Weather Map New forecast layout! Learn more

10-Day Weather Forecast

Advertisements
Track Severe Weather on mobile